sensor_id;sensor_type;location;lat;lon;timestamp;pressure;altitude;pressure_sealevel;temperature;humidity
4471;BME280;2248;42.698;23.292;2022-11-03T00:01:42;95709.22;;;16.97;82.35
4471;BME280;2248;42.698;23.292;2022-11-03T00:04:12;95697.78;;;16.86;82.55
4471;BME280;2248;42.698;23.292;2022-11-03T00:06:39;95705.56;;;16.87;82.91
4471;BME280;2248;42.698;23.292;2022-11-03T00:09:07;95712.22;;;16.86;83.32
4471;BME280;2248;42.698;23.292;2022-11-03T00:11:35;95711.28;;;16.77;84.04
4471;BME280;2248;42.698;23.292;2022-11-03T00:14:01;95717.00;;;16.82;84.60
4471;BME280;2248;42.698;23.292;2022-11-03T00:16:27;95702.41;;;16.72;85.75
4471;BME280;2248;42.698;23.292;2022-11-03T00:18:53;95714.69;;;16.81;86.85
4471;BME280;2248;42.698;23.292;2022-11-03T00:21:19;95710.00;;;16.81;87.35
4471;BME280;2248;42.698;23.292;2022-11-03T00:23:44;95722.09;;;16.80;88.41
4471;BME280;2248;42.698;23.292;2022-11-03T00:26:21;95716.31;;;16.78;88.28
4471;BME280;2248;42.698;23.292;2022-11-03T00:28:49;95712.91;;;16.74;88.25
4471;BME280;2248;42.698;23.292;2022-11-03T00:33:42;95722.28;;;16.73;89.06
4471;BME280;2248;42.698;23.292;2022-11-03T00:36:11;95718.09;;;16.68;89.69
4471;BME280;2248;42.698;23.292;2022-11-03T00:38:37;95722.44;;;16.66;90.13
4471;BME280;2248;42.698;23.292;2022-11-03T00:41:04;95723.66;;;16.65;90.21
4471;BME280;2248;42.698;23.292;2022-11-03T00:43:31;95706.03;;;16.53;90.41
4471;BME280;2248;42.698;23.292;2022-11-03T00:45:58;95718.38;;;16.58;90.63
4471;BME280;2248;42.698;23.292;2022-11-03T00:48:24;95735.59;;;16.54;90.93
4471;BME280;2248;42.698;23.292;2022-11-03T00:53:31;95729.53;;;16.47;91.58
4471;BME280;2248;42.698;23.292;2022-11-03T00:55:57;95722.22;;;16.44;92.27
4471;BME280;2248;42.698;23.292;2022-11-03T00:58:23;95714.28;;;16.33;93.08
4471;BME280;2248;42.698;23.292;2022-11-03T01:00:49;95722.72;;;16.38;93.82
4471;BME280;2248;42.698;23.292;2022-11-03T01:03:14;95720.94;;;16.32;95.96
4471;BME280;2248;42.698;23.292;2022-11-03T01:05:41;95724.41;;;16.32;97.67
4471;BME280;2248;42.698;23.292;2022-11-03T01:08:31;95717.88;;;16.30;100.00
4471;BME280;2248;42.698;23.292;2022-11-03T01:11:04;95724.94;;;16.27;100.00
4471;BME280;2248;42.698;23.292;2022-11-03T01:13:48;95704.13;;;16.17;100.00
4471;BME280;2248;42.698;23.292;2022-11-03T01:16:13;95705.75;;;16.14;100.00
4471;BME280;2248;42.698;23.292;2022-11-03T01:18:39;95721.53;;;16.23;100.00
4471;BME280;2248;42.698;23.292;2022-11-03T01:21:04;95720.34;;;16.24;100.00
4471;BME280;2248;42.698;23.292;2022-11-03T01:23:30;95719.91;;;16.26;100.00
4471;BME280;2248;42.698;23.292;2022-11-03T01:25:55;95719.16;;;16.25;100.00
4471;BME280;2248;42.698;23.292;2022-11-03T01:28:20;95723.50;;;16.23;100.00
4471;BME280;2248;42.698;23.292;2022-11-03T01:30:46;95718.88;;;16.19;100.00
4471;BME280;2248;42.698;23.292;2022-11-03T01:33:11;95715.47;;;16.15;100.00
4471;BME280;2248;42.698;23.292;2022-11-03T01:35:37;95715.47;;;16.15;100.00
4471;BME280;2248;42.698;23.292;2022-11-03T01:38:02;95717.94;;;16.10;100.00
4471;BME280;2248;42.698;23.292;2022-11-03T01:40:27;95727.81;;;16.03;100.00
4471;BME280;2248;42.698;23.292;2022-11-03T01:42:53;95735.19;;;16.03;100.00
4471;BME280;2248;42.698;23.292;2022-11-03T01:45:19;95727.88;;;16.00;100.00
4471;BME280;2248;42.698;23.292;2022-11-03T01:47:45;95721.66;;;15.99;100.00
4471;BME280;2248;42.698;23.292;2022-11-03T01:50:16;95723.69;;;15.95;100.00
4471;BME280;2248;42.698;23.292;2022-11-03T01:52:49;95722.84;;;15.98;100.00
4471;BME280;2248;42.698;23.292;2022-11-03T01:55:20;95717.97;;;15.90;100.00
4471;BME280;2248;42.698;23.292;2022-11-03T02:00:18;95731.19;;;15.91;100.00
4471;BME280;2248;42.698;23.292;2022-11-03T02:02:43;95728.13;;;15.89;100.00
4471;BME280;2248;42.698;23.292;2022-11-03T02:05:11;95726.84;;;15.74;100.00
4471;BME280;2248;42.698;23.292;2022-11-03T02:08:24;95746.16;;;15.83;100.00
4471;BME280;2248;42.698;23.292;2022-11-03T02:10:29;95733.72;;;15.82;100.00
4471;BME280;2248;42.698;23.292;2022-11-03T02:12:54;95740.78;;;15.79;100.00
4471;BME280;2248;42.698;23.292;2022-11-03T02:15:21;95729.50;;;15.77;100.00
4471;BME280;2248;42.698;23.292;2022-11-03T02:17:48;95731.84;;;15.79;100.00
4471;BME280;2248;42.698;23.292;2022-11-03T02:20:17;95736.13;;;15.76;100.00
4471;BME280;2248;42.698;23.292;2022-11-03T02:23:30;95734.75;;;15.68;100.00
4471;BME280;2248;42.698;23.292;2022-11-03T02:25:58;95718.28;;;15.55;100.00
4471;BME280;2248;42.698;23.292;2022-11-03T02:28:27;95732.94;;;15.61;100.00
4471;BME280;2248;42.698;23.292;2022-11-03T02:31:14;95740.00;;;15.59;100.00
4471;BME280;2248;42.698;23.292;2022-11-03T02:39:15;95740.63;;;15.46;100.00
4471;BME280;2248;42.698;23.292;2022-11-03T02:41:45;95731.41;;;15.40;100.00
4471;BME280;2248;42.698;23.292;2022-11-03T02:44:17;95738.44;;;15.38;100.00
4471;BME280;2248;42.698;23.292;2022-11-03T02:46:45;95731.22;;;15.31;100.00
4471;BME280;2248;42.698;23.292;2022-11-03T02:49:12;95734.78;;;15.28;100.00
4471;BME280;2248;42.698;23.292;2022-11-03T02:51:37;95728.97;;;15.26;100.00
4471;BME280;2248;42.698;23.292;2022-11-03T02:56:36;95719.13;;;15.12;100.00
4471;BME280;2248;42.698;23.292;2022-11-03T02:59:08;95735.66;;;15.21;100.00
4471;BME280;2248;42.698;23.292;2022-11-03T03:01:40;95737.97;;;15.23;100.00
4471;BME280;2248;42.698;23.292;2022-11-03T03:05:00;95727.44;;;15.25;100.00
4471;BME280;2248;42.698;23.292;2022-11-03T03:07:02;95727.78;;;15.27;100.00
4471;BME280;2248;42.698;23.292;2022-11-03T03:09:34;95729.75;;;15.26;100.00
4471;BME280;2248;42.698;23.292;2022-11-03T03:12:03;95734.06;;;15.24;100.00
4471;BME280;2248;42.698;23.292;2022-11-03T03:14:35;95736.78;;;15.24;100.00
4471;BME280;2248;42.698;23.292;2022-11-03T03:19:46;95737.22;;;15.22;100.00
4471;BME280;2248;42.698;23.292;2022-11-03T03:22:48;95730.97;;;15.22;100.00
4471;BME280;2248;42.698;23.292;2022-11-03T03:25:22;95730.63;;;15.20;100.00
4471;BME280;2248;42.698;23.292;2022-11-03T03:27:54;95736.59;;;15.14;100.00
4471;BME280;2248;42.698;23.292;2022-11-03T03:30:22;95736.22;;;15.12;100.00
4471;BME280;2248;42.698;23.292;2022-11-03T03:32:50;95737.88;;;15.06;100.00
4471;BME280;2248;42.698;23.292;2022-11-03T03:35:19;95734.53;;;14.98;100.00
4471;BME280;2248;42.698;23.292;2022-11-03T03:37:50;95732.69;;;14.92;100.00
4471;BME280;2248;42.698;23.292;2022-11-03T03:40:24;95736.28;;;14.85;100.00
4471;BME280;2248;42.698;23.292;2022-11-03T03:42:52;95738.38;;;14.77;100.00
4471;BME280;2248;42.698;23.292;2022-11-03T03:45:18;95739.25;;;14.71;100.00
4471;BME280;2248;42.698;23.292;2022-11-03T03:47:44;95744.78;;;14.67;100.00
4471;BME280;2248;42.698;23.292;2022-11-03T03:50:10;95744.47;;;14.61;100.00
4471;BME280;2248;42.698;23.292;2022-11-03T03:52:36;95729.47;;;14.50;100.00
4471;BME280;2248;42.698;23.292;2022-11-03T03:55:03;95691.41;;;14.26;100.00
4471;BME280;2248;42.698;23.292;2022-11-03T03:57:30;95743.41;;;14.52;100.00
4471;BME280;2248;42.698;23.292;2022-11-03T03:59:56;95744.75;;;14.43;100.00
4471;BME280;2248;42.698;23.292;2022-11-03T04:02:22;95742.88;;;14.37;100.00
4471;BME280;2248;42.698;23.292;2022-11-03T04:04:47;95751.53;;;14.32;100.00
4471;BME280;2248;42.698;23.292;2022-11-03T04:07:13;95745.41;;;14.24;100.00
4471;BME280;2248;42.698;23.292;2022-11-03T04:09:57;95745.88;;;14.19;100.00
4471;BME280;2248;42.698;23.292;2022-11-03T04:12:23;95751.34;;;14.15;100.00
4471;BME280;2248;42.698;23.292;2022-11-03T04:15:11;95725.63;;;13.96;100.00
4471;BME280;2248;42.698;23.292;2022-11-03T04:17:55;95746.44;;;14.06;100.00
4471;BME280;2248;42.698;23.292;2022-11-03T04:20:39;95742.63;;;14.00;100.00
4471;BME280;2248;42.698;23.292;2022-11-03T04:23:23;95741.34;;;13.81;100.00
4471;BME280;2248;42.698;23.292;2022-11-03T04:25:53;95740.69;;;13.73;100.00
4471;BME280;2248;42.698;23.292;2022-11-03T04:28:19;95739.88;;;13.73;100.00
4471;BME280;2248;42.698;23.292;2022-11-03T04:30:45;95739.94;;;13.69;100.00
4471;BME280;2248;42.698;23.292;2022-11-03T04:33:16;95733.72;;;13.69;100.00
4471;BME280;2248;42.698;23.292;2022-11-03T04:35:43;95742.66;;;13.69;100.00
4471;BME280;2248;42.698;23.292;2022-11-03T04:38:20;95741.50;;;13.70;100.00
4471;BME280;2248;42.698;23.292;2022-11-03T04:40:55;95735.75;;;13.65;100.00
4471;BME280;2248;42.698;23.292;2022-11-03T04:43:23;95724.25;;;13.53;100.00
4471;BME280;2248;42.698;23.292;2022-11-03T04:45:54;95739.06;;;13.45;100.00
4471;BME280;2248;42.698;23.292;2022-11-03T04:48:23;95741.63;;;13.21;100.00
4471;BME280;2248;42.698;23.292;2022-11-03T04:50:54;95741.03;;;13.03;100.00
4471;BME280;2248;42.698;23.292;2022-11-03T04:53:21;95745.84;;;12.88;100.00
4471;BME280;2248;42.698;23.292;2022-11-03T04:55:50;95742.56;;;12.66;100.00
4471;BME280;2248;42.698;23.292;2022-11-03T04:58:29;95747.97;;;12.66;100.00
4471;BME280;2248;42.698;23.292;2022-11-03T05:00:58;95756.50;;;12.64;100.00
4471;BME280;2248;42.698;23.292;2022-11-03T05:03:26;95753.47;;;12.59;100.00
4471;BME280;2248;42.698;23.292;2022-11-03T05:05:53;95754.66;;;12.54;100.00
4471;BME280;2248;42.698;23.292;2022-11-03T05:08:20;95757.38;;;12.54;100.00
4471;BME280;2248;42.698;23.292;2022-11-03T05:10:46;95752.00;;;12.47;100.00
4471;BME280;2248;42.698;23.292;2022-11-03T05:13:18;95748.25;;;12.33;100.00
4471;BME280;2248;42.698;23.292;2022-11-03T05:15:46;95765.25;;;12.34;100.00
4471;BME280;2248;42.698;23.292;2022-11-03T05:18:24;95765.31;;;12.27;100.00
4471;BME280;2248;42.698;23.292;2022-11-03T05:21:00;95759.97;;;12.16;100.00
4471;BME280;2248;42.698;23.292;2022-11-03T05:23:29;95765.00;;;12.17;100.00
4471;BME280;2248;42.698;23.292;2022-11-03T05:26:01;95767.31;;;12.15;100.00
4471;BME280;2248;42.698;23.292;2022-11-03T05:28:38;95770.81;;;12.16;100.00
4471;BME280;2248;42.698;23.292;2022-11-03T05:31:21;95771.56;;;12.16;100.00
4471;BME280;2248;42.698;23.292;2022-11-03T05:33:50;95773.47;;;12.19;100.00
4471;BME280;2248;42.698;23.292;2022-11-03T05:36:38;95773.06;;;12.25;100.00
4471;BME280;2248;42.698;23.292;2022-11-03T05:39:42;95776.81;;;12.42;100.00
4471;BME280;2248;42.698;23.292;2022-11-03T05:42:31;95780.59;;;12.55;100.00
4471;BME280;2248;42.698;23.292;2022-11-03T05:44:59;95773.59;;;12.58;100.00
4471;BME280;2248;42.698;23.292;2022-11-03T05:49:59;95793.16;;;12.80;100.00
4471;BME280;2248;42.698;23.292;2022-11-03T05:52:26;95792.31;;;12.90;100.00
4471;BME280;2248;42.698;23.292;2022-11-03T05:54:57;95794.50;;;13.06;100.00
4471;BME280;2248;42.698;23.292;2022-11-03T05:57:25;95791.31;;;13.15;100.00
4471;BME280;2248;42.698;23.292;2022-11-03T05:59:52;95795.16;;;13.21;100.00
4471;BME280;2248;42.698;23.292;2022-11-03T06:02:32;95799.28;;;13.33;100.00
4471;BME280;2248;42.698;23.292;2022-11-03T06:05:00;95799.50;;;13.53;100.00
4471;BME280;2248;42.698;23.292;2022-11-03T06:07:28;95808.66;;;13.66;100.00
4471;BME280;2248;42.698;23.292;2022-11-03T06:09:57;95807.25;;;13.85;100.00
4471;BME280;2248;42.698;23.292;2022-11-03T06:12:24;95807.53;;;13.94;100.00
4471;BME280;2248;42.698;23.292;2022-11-03T06:14:50;95813.50;;;14.13;100.00
4471;BME280;2248;42.698;23.292;2022-11-03T06:17:22;95816.78;;;14.28;100.00
4471;BME280;2248;42.698;23.292;2022-11-03T06:19:53;95817.72;;;14.45;100.00
4471;BME280;2248;42.698;23.292;2022-11-03T06:22:29;95813.19;;;14.66;100.00
4471;BME280;2248;42.698;23.292;2022-11-03T06:25:19;95818.81;;;14.78;100.00
4471;BME280;2248;42.698;23.292;2022-11-03T06:27:46;95816.69;;;14.90;100.00
4471;BME280;2248;42.698;23.292;2022-11-03T06:30:28;95814.50;;;15.05;100.00
4471;BME280;2248;42.698;23.292;2022-11-03T06:32:58;95823.53;;;15.22;100.00
4471;BME280;2248;42.698;23.292;2022-11-03T06:35:24;95819.78;;;15.36;100.00
4471;BME280;2248;42.698;23.292;2022-11-03T06:37:50;95821.22;;;15.44;100.00
4471;BME280;2248;42.698;23.292;2022-11-03T06:42:41;95814.38;;;15.56;100.00
4471;BME280;2248;42.698;23.292;2022-11-03T06:45:16;95822.34;;;15.66;100.00
4471;BME280;2248;42.698;23.292;2022-11-03T06:47:43;95830.47;;;15.70;100.00
4471;BME280;2248;42.698;23.292;2022-11-03T06:52:50;95819.41;;;15.77;100.00
4471;BME280;2248;42.698;23.292;2022-11-03T06:55:25;95826.66;;;15.88;100.00
4471;BME280;2248;42.698;23.292;2022-11-03T06:57:58;95817.25;;;15.89;100.00
4471;BME280;2248;42.698;23.292;2022-11-03T07:00:26;95833.19;;;16.10;100.00
4471;BME280;2248;42.698;23.292;2022-11-03T07:02:56;95825.13;;;16.23;100.00
4471;BME280;2248;42.698;23.292;2022-11-03T07:05:28;95824.91;;;16.34;100.00
4471;BME280;2248;42.698;23.292;2022-11-03T07:07:58;95820.81;;;16.42;100.00
4471;BME280;2248;42.698;23.292;2022-11-03T07:10:31;95822.22;;;16.50;100.00
4471;BME280;2248;42.698;23.292;2022-11-03T07:13:11;95798.34;;;16.54;100.00
4471;BME280;2248;42.698;23.292;2022-11-03T07:15:37;95817.53;;;16.84;100.00
4471;BME280;2248;42.698;23.292;2022-11-03T07:18:19;95818.94;;;16.92;100.00
4471;BME280;2248;42.698;23.292;2022-11-03T07:20:46;95815.25;;;16.99;100.00
4471;BME280;2248;42.698;23.292;2022-11-03T07:23:17;95816.44;;;16.98;100.00
4471;BME280;2248;42.698;23.292;2022-11-03T07:25:56;95816.63;;;17.07;100.00
4471;BME280;2248;42.698;23.292;2022-11-03T07:28:28;95815.91;;;17.19;100.00
4471;BME280;2248;42.698;23.292;2022-11-03T07:30:55;95818.66;;;17.19;100.00
4471;BME280;2248;42.698;23.292;2022-11-03T07:33:25;95806.22;;;17.18;100.00
4471;BME280;2248;42.698;23.292;2022-11-03T07:35:52;95817.28;;;17.28;100.00
4471;BME280;2248;42.698;23.292;2022-11-03T07:38:23;95819.03;;;17.34;100.00
4471;BME280;2248;42.698;23.292;2022-11-03T07:40:49;95811.28;;;17.33;100.00
4471;BME280;2248;42.698;23.292;2022-11-03T07:43:36;95815.56;;;17.34;100.00
4471;BME280;2248;42.698;23.292;2022-11-03T07:46:03;95801.84;;;17.21;100.00
4471;BME280;2248;42.698;23.292;2022-11-03T07:48:45;95823.41;;;17.32;100.00
4471;BME280;2248;42.698;23.292;2022-11-03T07:51:26;95814.69;;;17.37;100.00
4471;BME280;2248;42.698;23.292;2022-11-03T07:54:21;95817.00;;;17.38;100.00
4471;BME280;2248;42.698;23.292;2022-11-03T07:56:51;95806.41;;;17.40;100.00
4471;BME280;2248;42.698;23.292;2022-11-03T07:59:21;95811.69;;;17.48;100.00
4471;BME280;2248;42.698;23.292;2022-11-03T08:01:53;95798.53;;;17.42;100.00
4471;BME280;2248;42.698;23.292;2022-11-03T08:04:24;95807.84;;;17.45;100.00
4471;BME280;2248;42.698;23.292;2022-11-03T08:06:50;95796.44;;;17.34;100.00
4471;BME280;2248;42.698;23.292;2022-11-03T08:09:16;95795.97;;;17.52;100.00
4471;BME280;2248;42.698;23.292;2022-11-03T08:11:42;95795.69;;;17.63;100.00
4471;BME280;2248;42.698;23.292;2022-11-03T08:14:08;95788.78;;;17.58;100.00
4471;BME280;2248;42.698;23.292;2022-11-03T08:16:35;95787.03;;;17.64;100.00
4471;BME280;2248;42.698;23.292;2022-11-03T08:19:00;95794.63;;;17.73;100.00
4471;BME280;2248;42.698;23.292;2022-11-03T08:21:26;95786.53;;;17.82;100.00
4471;BME280;2248;42.698;23.292;2022-11-03T08:23:51;95780.81;;;17.93;100.00
4471;BME280;2248;42.698;23.292;2022-11-03T08:26:17;95783.00;;;18.11;100.00
4471;BME280;2248;42.698;23.292;2022-11-03T08:28:42;95782.47;;;18.16;100.00
4471;BME280;2248;42.698;23.292;2022-11-03T08:31:08;95779.84;;;18.12;100.00
4471;BME280;2248;42.698;23.292;2022-11-03T08:33:34;95768.03;;;18.03;100.00
4471;BME280;2248;42.698;23.292;2022-11-03T08:36:00;95773.19;;;18.26;100.00
4471;BME280;2248;42.698;23.292;2022-11-03T08:38:27;95753.59;;;18.28;100.00
4471;BME280;2248;42.698;23.292;2022-11-03T08:40:53;95736.53;;;18.37;100.00
4471;BME280;2248;42.698;23.292;2022-11-03T08:43:19;95767.03;;;18.61;100.00
4471;BME280;2248;42.698;23.292;2022-11-03T08:45:45;95771.59;;;18.77;100.00
4471;BME280;2248;42.698;23.292;2022-11-03T08:48:11;95765.81;;;18.75;100.00
4471;BME280;2248;42.698;23.292;2022-11-03T08:50:36;95769.53;;;18.94;100.00
4471;BME280;2248;42.698;23.292;2022-11-03T08:53:02;95766.53;;;19.14;100.00
4471;BME280;2248;42.698;23.292;2022-11-03T08:55:28;95761.97;;;19.33;98.40
4471;BME280;2248;42.698;23.292;2022-11-03T08:57:53;95762.63;;;19.37;97.00
4471;BME280;2248;42.698;23.292;2022-11-03T09:00:19;95767.41;;;19.46;95.26
4471;BME280;2248;42.698;23.292;2022-11-03T09:02:44;95760.00;;;19.56;95.12
4471;BME280;2248;42.698;23.292;2022-11-03T09:05:11;95768.56;;;19.80;92.78
4471;BME280;2248;42.698;23.292;2022-11-03T09:07:40;95768.69;;;19.76;92.72
4471;BME280;2248;42.698;23.292;2022-11-03T09:10:07;95766.88;;;20.05;91.75
4471;BME280;2248;42.698;23.292;2022-11-03T09:12:33;95758.28;;;20.25;90.00
4471;BME280;2248;42.698;23.292;2022-11-03T09:14:58;95752.72;;;20.47;87.62
4471;BME280;2248;42.698;23.292;2022-11-03T09:17:24;95760.97;;;21.24;85.45
4471;BME280;2248;42.698;23.292;2022-11-03T09:19:49;95748.41;;;23.46;75.95
4471;BME280;2248;42.698;23.292;2022-11-03T09:22:15;95759.63;;;25.39;65.48
4471;BME280;2248;42.698;23.292;2022-11-03T09:24:40;95750.00;;;26.71;56.31
4471;BME280;2248;42.698;23.292;2022-11-03T09:27:06;95736.09;;;27.20;50.89
4471;BME280;2248;42.698;23.292;2022-11-03T09:29:31;95744.13;;;27.73;48.45
4471;BME280;2248;42.698;23.292;2022-11-03T09:31:57;95731.19;;;27.53;47.04
4471;BME280;2248;42.698;23.292;2022-11-03T09:34:23;95735.97;;;27.46;47.47
4471;BME280;2248;42.698;23.292;2022-11-03T09:36:48;95735.34;;;27.20;47.81
4471;BME280;2248;42.698;23.292;2022-11-03T09:39:13;95734.69;;;26.82;49.46
4471;BME280;2248;42.698;23.292;2022-11-03T09:41:39;95705.56;;;24.97;58.88
4471;BME280;2248;42.698;23.292;2022-11-03T09:44:04;95725.94;;;25.20;59.27
4471;BME280;2248;42.698;23.292;2022-11-03T09:46:30;95720.09;;;25.59;56.54
4471;BME280;2248;42.698;23.292;2022-11-03T09:48:57;95716.34;;;25.88;54.75
4471;BME280;2248;42.698;23.292;2022-11-03T09:51:25;95716.72;;;26.02;54.10
4471;BME280;2248;42.698;23.292;2022-11-03T09:53:51;95717.03;;;26.09;53.85
4471;BME280;2248;42.698;23.292;2022-11-03T09:56:21;95715.09;;;26.53;52.32
4471;BME280;2248;42.698;23.292;2022-11-03T09:58:48;95707.66;;;26.33;51.93
4471;BME280;2248;42.698;23.292;2022-11-03T10:01:14;95691.91;;;26.13;52.43
4471;BME280;2248;42.698;23.292;2022-11-03T10:03:39;95696.28;;;25.67;53.95
4471;BME280;2248;42.698;23.292;2022-11-03T10:06:05;95693.97;;;25.34;56.54
4471;BME280;2248;42.698;23.292;2022-11-03T10:08:33;95687.00;;;25.23;57.66
4471;BME280;2248;42.698;23.292;2022-11-03T10:11:00;95680.19;;;25.19;57.77
4471;BME280;2248;42.698;23.292;2022-11-03T10:13:34;95678.75;;;25.03;59.11
4471;BME280;2248;42.698;23.292;2022-11-03T10:16:02;95671.50;;;24.64;59.97
4471;BME280;2248;42.698;23.292;2022-11-03T10:18:29;95671.22;;;24.27;61.49
4471;BME280;2248;42.698;23.292;2022-11-03T10:20:57;95671.25;;;24.12;63.07
4471;BME280;2248;42.698;23.292;2022-11-03T10:23:27;95663.03;;;24.32;62.79
4471;BME280;2248;42.698;23.292;2022-11-03T10:28:34;95654.16;;;24.28;62.38
4471;BME280;2248;42.698;23.292;2022-11-03T10:31:05;95648.63;;;24.08;63.17
4471;BME280;2248;42.698;23.292;2022-11-03T10:33:40;95653.97;;;23.96;64.07
4471;BME280;2248;42.698;23.292;2022-11-03T10:38:40;95640.72;;;23.85;63.84
4471;BME280;2248;42.698;23.292;2022-11-03T10:43:39;95615.09;;;23.35;65.67
4471;BME280;2248;42.698;23.292;2022-11-03T10:46:20;95625.91;;;23.23;66.58
4471;BME280;2248;42.698;23.292;2022-11-03T10:49:12;95607.56;;;23.65;64.08
4471;BME280;2248;42.698;23.292;2022-11-03T10:51:39;95624.94;;;24.22;59.10
4471;BME280;2248;42.698;23.292;2022-11-03T10:54:10;95609.38;;;24.39;56.45
4471;BME280;2248;42.698;23.292;2022-11-03T10:56:36;95613.38;;;24.38;55.09
4471;BME280;2248;42.698;23.292;2022-11-03T10:59:02;95599.63;;;24.23;54.49
4471;BME280;2248;42.698;23.292;2022-11-03T11:01:27;95595.06;;;23.84;55.74
4471;BME280;2248;42.698;23.292;2022-11-03T11:03:53;95586.41;;;23.77;58.45
4471;BME280;2248;42.698;23.292;2022-11-03T11:06:27;95580.63;;;23.60;60.89
4471;BME280;2248;42.698;23.292;2022-11-03T11:08:58;95575.78;;;23.70;61.46
4471;BME280;2248;42.698;23.292;2022-11-03T11:11:24;95570.56;;;23.57;58.22
4471;BME280;2248;42.698;23.292;2022-11-03T11:14:20;95581.47;;;23.81;58.84
4471;BME280;2248;42.698;23.292;2022-11-03T11:19:12;95571.38;;;23.93;52.38
4471;BME280;2248;42.698;23.292;2022-11-03T11:24:05;95568.41;;;23.81;49.61
4471;BME280;2248;42.698;23.292;2022-11-03T11:26:33;95563.00;;;23.87;49.24
4471;BME280;2248;42.698;23.292;2022-11-03T11:31:45;95557.56;;;23.93;50.15
4471;BME280;2248;42.698;23.292;2022-11-03T11:52:32;95526.94;;;26.01;42.42
4471;BME280;2248;42.698;23.292;2022-11-03T11:55:00;95515.31;;;26.57;38.04
4471;BME280;2248;42.698;23.292;2022-11-03T11:57:29;95525.50;;;27.00;36.55
4471;BME280;2248;42.698;23.292;2022-11-03T11:59:57;95514.69;;;27.13;33.53
4471;BME280;2248;42.698;23.292;2022-11-03T12:02:23;95518.94;;;26.74;33.90
4471;BME280;2248;42.698;23.292;2022-11-03T12:04:56;95513.75;;;26.33;35.60
4471;BME280;2248;42.698;23.292;2022-11-03T12:07:32;95513.03;;;25.89;36.85
4471;BME280;2248;42.698;23.292;2022-11-03T12:10:28;95512.88;;;25.67;37.87
4471;BME280;2248;42.698;23.292;2022-11-03T12:12:55;95499.88;;;26.27;37.22
4471;BME280;2248;42.698;23.292;2022-11-03T12:15:53;95502.22;;;26.57;35.26
4471;BME280;2248;42.698;23.292;2022-11-03T12:21:11;95489.81;;;25.81;34.85
4471;BME280;2248;42.698;23.292;2022-11-03T12:23:44;95493.56;;;25.35;36.55
4471;BME280;2248;42.698;23.292;2022-11-03T12:26:38;95488.59;;;24.86;37.92
4471;BME280;2248;42.698;23.292;2022-11-03T12:29:04;95490.41;;;24.43;39.85
4471;BME280;2248;42.698;23.292;2022-11-03T12:31:29;95487.75;;;24.07;41.48
4471;BME280;2248;42.698;23.292;2022-11-03T12:33:55;95480.22;;;23.87;42.93
4471;BME280;2248;42.698;23.292;2022-11-03T12:36:20;95474.66;;;23.66;43.79
4471;BME280;2248;42.698;23.292;2022-11-03T12:38:46;95460.16;;;23.51;43.77
4471;BME280;2248;42.698;23.292;2022-11-03T12:41:11;95460.19;;;23.36;44.56
4471;BME280;2248;42.698;23.292;2022-11-03T12:43:47;95469.53;;;23.24;45.83
4471;BME280;2248;42.698;23.292;2022-11-03T12:46:14;95459.25;;;23.09;47.02
4471;BME280;2248;42.698;23.292;2022-11-03T12:48:41;95446.44;;;22.61;50.40
4471;BME280;2248;42.698;23.292;2022-11-03T12:51:11;95444.06;;;22.39;54.51
4471;BME280;2248;42.698;23.292;2022-11-03T12:53:38;95459.34;;;22.40;59.21
4471;BME280;2248;42.698;23.292;2022-11-03T12:56:04;95453.47;;;22.48;54.99
4471;BME280;2248;42.698;23.292;2022-11-03T12:58:29;95449.78;;;22.51;53.59
4471;BME280;2248;42.698;23.292;2022-11-03T13:00:54;95452.06;;;22.52;52.56
4471;BME280;2248;42.698;23.292;2022-11-03T13:03:20;95444.84;;;22.55;52.07
4471;BME280;2248;42.698;23.292;2022-11-03T13:05:46;95449.97;;;22.47;52.46
4471;BME280;2248;42.698;23.292;2022-11-03T13:08:12;95439.81;;;22.53;52.51
4471;BME280;2248;42.698;23.292;2022-11-03T13:10:38;95435.25;;;22.50;52.41
4471;BME280;2248;42.698;23.292;2022-11-03T13:13:05;95435.22;;;22.35;54.21
4471;BME280;2248;42.698;23.292;2022-11-03T13:15:30;95434.34;;;22.29;56.50
4471;BME280;2248;42.698;23.292;2022-11-03T13:17:55;95425.69;;;22.21;55.03
4471;BME280;2248;42.698;23.292;2022-11-03T13:20:21;95433.97;;;22.21;57.47
4471;BME280;2248;42.698;23.292;2022-11-03T13:22:46;95423.13;;;22.18;59.32
4471;BME280;2248;42.698;23.292;2022-11-03T13:25:12;95425.78;;;22.12;59.68
4471;BME280;2248;42.698;23.292;2022-11-03T13:27:37;95421.50;;;22.11;60.74
4471;BME280;2248;42.698;23.292;2022-11-03T13:30:04;95422.94;;;22.06;61.03
4471;BME280;2248;42.698;23.292;2022-11-03T13:32:29;95419.28;;;22.00;61.39
4471;BME280;2248;42.698;23.292;2022-11-03T13:34:55;95408.66;;;21.93;60.31
4471;BME280;2248;42.698;23.292;2022-11-03T13:37:20;95413.28;;;21.87;59.39
4471;BME280;2248;42.698;23.292;2022-11-03T13:39:46;95414.97;;;21.84;58.69
4471;BME280;2248;42.698;23.292;2022-11-03T13:42:11;95418.16;;;21.92;58.68
4471;BME280;2248;42.698;23.292;2022-11-03T13:44:37;95417.50;;;21.97;57.48
4471;BME280;2248;42.698;23.292;2022-11-03T13:47:02;95414.16;;;21.93;59.55
4471;BME280;2248;42.698;23.292;2022-11-03T13:49:28;95408.16;;;21.80;62.61
4471;BME280;2248;42.698;23.292;2022-11-03T13:51:54;95414.31;;;21.74;63.56
4471;BME280;2248;42.698;23.292;2022-11-03T13:54:20;95414.00;;;21.72;63.60
4471;BME280;2248;42.698;23.292;2022-11-03T13:56:45;95418.75;;;21.72;63.16
4471;BME280;2248;42.698;23.292;2022-11-03T13:59:11;95415.47;;;21.58;63.04
4471;BME280;2248;42.698;23.292;2022-11-03T14:01:37;95417.38;;;21.52;62.93
4471;BME280;2248;42.698;23.292;2022-11-03T14:04:02;95408.78;;;21.50;62.18
4471;BME280;2248;42.698;23.292;2022-11-03T14:06:28;95417.97;;;21.47;64.36
4471;BME280;2248;42.698;23.292;2022-11-03T14:08:53;95419.66;;;21.45;64.85
4471;BME280;2248;42.698;23.292;2022-11-03T14:11:19;95419.06;;;21.40;63.78
4471;BME280;2248;42.698;23.292;2022-11-03T14:14:02;95422.06;;;21.28;66.59
4471;BME280;2248;42.698;23.292;2022-11-03T14:16:28;95415.97;;;21.23;65.21
4471;BME280;2248;42.698;23.292;2022-11-03T14:18:53;95421.63;;;21.20;63.82
4471;BME280;2248;42.698;23.292;2022-11-03T14:21:19;95400.31;;;21.05;66.14